createdAt,value
2023-01-26T00:01:23.466Z,134.23
2023-01-26T00:03:51.657Z,114.73
2023-01-26T00:06:20.755Z,258.83
2023-01-26T00:08:50.312Z,136.20
2023-01-26T00:11:20.252Z,140.70
2023-01-26T00:13:53.869Z,130.50
2023-01-26T00:16:21.370Z,170.47
2023-01-26T00:18:48.989Z,130.57
2023-01-26T00:21:19.170Z,110.03
2023-01-26T00:23:47.014Z,95.83
2023-01-26T00:26:17.464Z,81.30
2023-01-26T00:28:45.002Z,107.17
2023-01-26T00:31:17.438Z,81.17
2023-01-26T00:33:45.331Z,84.80
2023-01-26T00:36:13.793Z,89.93
2023-01-26T00:38:41.650Z,84.90
2023-01-26T00:41:09.138Z,87.30
2023-01-26T00:43:36.333Z,91.13
2023-01-26T00:46:03.868Z,95.47
2023-01-26T00:48:31.273Z,103.83
2023-01-26T00:50:58.667Z,141.03
2023-01-26T00:53:25.887Z,231.93
2023-01-26T00:55:56.173Z,222.07
2023-01-26T00:58:23.436Z,180.23
2023-01-26T01:00:50.621Z,174.33
2023-01-26T01:03:18.216Z,103.93
2023-01-26T01:05:45.437Z,91.47
2023-01-26T01:08:12.662Z,100.57
2023-01-26T01:10:40.277Z,91.47
2023-01-26T01:13:07.924Z,93.60
2023-01-26T01:15:35.024Z,96.73
2023-01-26T01:18:02.326Z,100.27
2023-01-26T01:20:30.072Z,93.23
2023-01-26T01:22:57.166Z,89.93
2023-01-26T01:25:24.356Z,95.00
2023-01-26T01:27:51.504Z,85.33
2023-01-26T01:30:18.802Z,97.53
2023-01-26T01:32:49.849Z,93.37
2023-01-26T01:35:16.987Z,103.17
2023-01-26T01:37:44.138Z,159.93
2023-01-26T01:40:13.797Z,139.17
2023-01-26T01:42:47.636Z,110.30
2023-01-26T01:45:26.744Z,74.90
2023-01-26T01:47:57.501Z,78.77
2023-01-26T01:50:26.315Z,84.30
2023-01-26T01:52:56.565Z,86.40
2023-01-26T01:55:25.787Z,70.17
2023-01-26T01:57:59.172Z,71.53
2023-01-26T02:00:27.414Z,77.23
2023-01-26T02:03:11.905Z,71.33
2023-01-26T02:06:03.709Z,65.20
2023-01-26T02:08:38.359Z,60.83
2023-01-26T02:11:13.913Z,59.80
2023-01-26T02:13:43.626Z,52.13
2023-01-26T02:16:11.353Z,57.73
2023-01-26T02:18:38.908Z,56.40
2023-01-26T02:21:10.056Z,57.13
2023-01-26T02:23:49.341Z,56.27
2023-01-26T02:26:36.859Z,53.40
2023-01-26T02:29:07.802Z,56.10
2023-01-26T02:31:37.201Z,115.10
2023-01-26T02:34:04.796Z,83.20
2023-01-26T02:36:34.161Z,72.40
2023-01-26T02:39:39.562Z,55.17
2023-01-26T02:42:25.738Z,53.33
2023-01-26T02:44:53.071Z,48.43
2023-01-26T02:47:20.510Z,46.77
2023-01-26T02:49:47.887Z,47.20
2023-01-26T02:52:17.188Z,46.50
2023-01-26T02:55:03.257Z,49.93
2023-01-26T02:57:30.686Z,48.97
2023-01-26T02:59:58.224Z,50.43
2023-01-26T03:02:25.527Z,52.80
2023-01-26T03:04:52.691Z,50.80
2023-01-26T03:07:19.915Z,48.73
2023-01-26T03:09:47.080Z,51.73
2023-01-26T03:12:14.314Z,39.80
2023-01-26T03:14:41.865Z,44.43
2023-01-26T03:17:09.039Z,46.90
2023-01-26T03:19:54.687Z,48.63
2023-01-26T03:22:40.550Z,45.80
2023-01-26T03:25:28.295Z,44.93
2023-01-26T03:27:55.449Z,47.13
2023-01-26T03:30:22.911Z,49.37
2023-01-26T03:32:50.051Z,46.37
2023-01-26T03:35:22.898Z,42.43
2023-01-26T03:37:55.051Z,46.90
2023-01-26T03:40:41.595Z,45.40
2023-01-26T03:43:29.952Z,46.73
2023-01-26T03:46:15.923Z,47.57
2023-01-26T03:49:01.802Z,45.30
2023-01-26T03:51:47.827Z,46.03
2023-01-26T03:54:33.511Z,44.20
2023-01-26T03:57:00.769Z,40.50
2023-01-26T03:59:40.227Z,47.07
2023-01-26T04:02:28.136Z,40.10
2023-01-26T04:05:14.402Z,43.53
2023-01-26T04:08:00.848Z,39.63
2023-01-26T04:10:28.469Z,37.47
2023-01-26T04:13:14.268Z,40.40
2023-01-26T04:16:00.056Z,42.60
2023-01-26T04:18:46.462Z,38.90
2023-01-26T04:21:32.360Z,46.37
2023-01-26T04:24:00.339Z,42.60
2023-01-26T04:26:41.191Z,38.83
2023-01-26T04:29:11.666Z,41.50
2023-01-26T04:31:40.261Z,40.80
2023-01-26T04:34:12.839Z,46.00
2023-01-26T04:36:41.505Z,45.80
2023-01-26T04:39:09.217Z,43.57
2023-01-26T04:41:37.241Z,45.80
2023-01-26T04:44:04.622Z,46.67
2023-01-26T04:46:33.438Z,47.90
2023-01-26T04:49:00.668Z,49.83
2023-01-26T04:51:28.681Z,46.37
2023-01-26T04:53:55.925Z,47.47
2023-01-26T04:56:34.042Z,45.77
2023-01-26T04:59:04.563Z,43.97
2023-01-26T05:01:32.061Z,45.37
2023-01-26T05:04:03.135Z,42.87
2023-01-26T05:06:30.907Z,43.23
2023-01-26T05:08:58.536Z,41.93
2023-01-26T05:11:26.291Z,44.37
2023-01-26T05:13:53.520Z,44.17
2023-01-26T05:16:21.734Z,45.17
2023-01-26T05:18:48.903Z,47.93
2023-01-26T05:21:16.320Z,50.13
2023-01-26T05:23:43.610Z,52.90
2023-01-26T05:26:10.952Z,58.57
2023-01-26T05:28:38.207Z,46.07
2023-01-26T05:31:05.834Z,52.77
2023-01-26T05:33:33.218Z,57.57
2023-01-26T05:36:05.511Z,55.67
2023-01-26T05:38:33.196Z,51.50
2023-01-26T05:41:00.278Z,48.00
2023-01-26T05:43:27.547Z,44.27
2023-01-26T05:45:54.796Z,44.03
2023-01-26T05:48:22.137Z,41.57
2023-01-26T05:50:49.324Z,44.23
2023-01-26T05:53:16.675Z,47.53
2023-01-26T05:55:44.123Z,45.33
2023-01-26T05:58:11.286Z,46.57
2023-01-26T06:00:38.562Z,44.63
2023-01-26T06:03:05.788Z,41.63
2023-01-26T06:05:32.887Z,44.50
2023-01-26T06:08:00.049Z,44.53
2023-01-26T06:10:27.469Z,47.87
2023-01-26T06:12:54.605Z,48.70
2023-01-26T06:15:21.918Z,52.83
2023-01-26T06:17:49.075Z,55.90
2023-01-26T06:20:16.455Z,59.87
2023-01-26T06:22:43.648Z,70.83
2023-01-26T06:25:10.905Z,72.53
2023-01-26T06:27:42.544Z,81.37
2023-01-26T06:30:11.122Z,91.20
2023-01-26T06:32:38.652Z,94.50
2023-01-26T06:35:07.059Z,68.47
2023-01-26T06:37:34.802Z,74.13
2023-01-26T06:40:02.164Z,66.60
2023-01-26T06:42:29.464Z,69.93
2023-01-26T06:44:58.984Z,71.83
2023-01-26T06:47:26.290Z,82.47
2023-01-26T06:49:53.561Z,80.23
2023-01-26T06:52:36.012Z,87.27
2023-01-26T06:55:04.274Z,84.23
2023-01-26T06:57:31.406Z,54.03
2023-01-26T06:59:58.774Z,45.40
2023-01-26T07:02:25.952Z,43.80
2023-01-26T07:04:53.360Z,67.27
2023-01-26T07:07:20.547Z,54.00
2023-01-26T07:09:47.735Z,63.40
2023-01-26T07:12:15.249Z,86.63
2023-01-26T07:14:42.509Z,94.03
2023-01-26T07:17:09.624Z,72.43
2023-01-26T07:19:37.602Z,63.70
2023-01-26T07:22:05.386Z,64.27
2023-01-26T07:24:32.523Z,71.40
2023-01-26T07:26:59.766Z,94.13
2023-01-26T07:29:26.908Z,73.57
2023-01-26T07:31:54.179Z,323.07
2023-01-26T07:34:21.559Z,139.80
2023-01-26T07:36:51.475Z,88.60
2023-01-26T07:39:18.675Z,71.47
2023-01-26T07:41:46.027Z,143.37
2023-01-26T07:44:13.271Z,77.27
2023-01-26T07:46:43.184Z,67.37
2023-01-26T07:49:12.538Z,88.07
2023-01-26T07:51:39.975Z,75.33
2023-01-26T07:54:07.796Z,48.17
2023-01-26T07:56:35.021Z,57.93
2023-01-26T07:59:03.853Z,75.37
2023-01-26T08:01:32.335Z,67.80
2023-01-26T08:03:59.691Z,56.53
2023-01-26T08:06:27.048Z,81.73
2023-01-26T08:08:55.136Z,72.57
2023-01-26T08:11:24.507Z,65.00
2023-01-26T08:13:52.109Z,64.73
2023-01-26T08:16:19.657Z,62.30
2023-01-26T08:18:47.414Z,44.90
2023-01-26T08:21:16.509Z,46.50
2023-01-26T08:23:44.098Z,37.97
2023-01-26T08:26:14.063Z,41.13
2023-01-26T08:28:41.884Z,54.43
2023-01-26T08:31:13.187Z,73.13
2023-01-26T08:33:42.409Z,63.27
2023-01-26T08:36:12.391Z,47.93
2023-01-26T08:38:39.663Z,141.10
2023-01-26T08:41:07.667Z,93.90
2023-01-26T08:43:35.601Z,99.73
2023-01-26T08:46:03.142Z,85.57
2023-01-26T08:48:31.406Z,71.23
2023-01-26T08:51:02.993Z,52.00
2023-01-26T08:53:34.944Z,37.57
2023-01-26T08:56:03.587Z,34.60
2023-01-26T08:58:31.301Z,36.63
2023-01-26T09:00:58.827Z,38.83
2023-01-26T09:03:26.140Z,37.83
2023-01-26T09:05:53.246Z,40.57
2023-01-26T09:08:20.372Z,42.53
2023-01-26T09:10:47.555Z,37.83
2023-01-26T09:13:14.668Z,34.00
2023-01-26T09:15:42.125Z,34.07
2023-01-26T09:18:11.867Z,68.70
2023-01-26T09:20:39.913Z,68.73
2023-01-26T09:23:07.733Z,52.77
2023-01-26T09:25:37.897Z,51.93
2023-01-26T09:28:05.882Z,41.77
2023-01-26T09:30:33.729Z,45.30
2023-01-26T09:33:02.637Z,44.37
2023-01-26T09:35:30.726Z,46.70
2023-01-26T09:37:58.012Z,39.63
2023-01-26T09:40:42.127Z,44.40
2023-01-26T09:43:21.380Z,37.40
2023-01-26T09:45:59.843Z,35.97
2023-01-26T09:48:52.311Z,47.90
2023-01-26T09:51:38.516Z,41.57
2023-01-26T09:54:17.654Z,35.33
2023-01-26T09:56:45.551Z,34.77
2023-01-26T09:59:35.359Z,33.80
2023-01-26T10:02:22.907Z,46.90
2023-01-26T10:04:56.539Z,51.07
2023-01-26T10:07:23.773Z,45.10
2023-01-26T10:09:53.651Z,47.47
2023-01-26T10:12:31.814Z,36.47
2023-01-26T10:15:11.703Z,40.23
2023-01-26T10:17:42.756Z,88.47
2023-01-26T10:20:22.267Z,60.13
2023-01-26T10:22:53.203Z,79.43
2023-01-26T10:25:29.911Z,85.37
2023-01-26T10:27:57.495Z,77.03
2023-01-26T10:30:24.606Z,64.57
2023-01-26T10:32:53.928Z,63.97
2023-01-26T10:35:25.630Z,61.67
2023-01-26T10:37:53.357Z,50.10
2023-01-26T10:40:21.237Z,43.33
2023-01-26T10:42:59.970Z,43.93
2023-01-26T10:45:32.217Z,40.90
2023-01-26T10:48:16.453Z,49.07
2023-01-26T10:50:44.260Z,46.17
2023-01-26T10:53:25.663Z,42.23
2023-01-26T10:56:17.428Z,59.20
2023-01-26T10:58:52.425Z,46.83
2023-01-26T11:01:27.592Z,45.00
2023-01-26T11:04:12.431Z,33.63
2023-01-26T11:06:41.564Z,37.50
2023-01-26T11:09:11.687Z,45.13
2023-01-26T11:11:39.124Z,67.77
2023-01-26T11:14:16.803Z,46.17
2023-01-26T11:17:30.427Z,60.40
2023-01-26T11:20:07.903Z,44.47
2023-01-26T11:22:46.039Z,37.23
2023-01-26T11:25:43.011Z,34.57
2023-01-26T11:28:31.875Z,37.73
2023-01-26T11:31:23.424Z,32.17
2023-01-26T11:34:03.250Z,38.73
2023-01-26T11:36:40.691Z,60.03
2023-01-26T11:39:26.003Z,43.87
2023-01-26T11:42:15.056Z,58.47
2023-01-26T11:45:14.846Z,61.97
2023-01-26T11:48:04.729Z,58.93
2023-01-26T11:51:06.094Z,42.83
2023-01-26T11:53:56.489Z,46.70
2023-01-26T11:56:44.413Z,58.83
2023-01-26T11:59:17.680Z,43.67
2023-01-26T12:02:09.814Z,40.97
2023-01-26T12:04:45.562Z,49.63
2023-01-26T12:07:33.797Z,47.50
2023-01-26T12:10:03.087Z,48.73
2023-01-26T12:12:43.364Z,109.70
2023-01-26T12:15:29.280Z,71.83
2023-01-26T12:18:10.829Z,70.77
2023-01-26T12:20:42.365Z,60.43
2023-01-26T12:23:09.432Z,48.17
2023-01-26T12:25:39.782Z,46.03
2023-01-26T12:28:25.085Z,38.67
2023-01-26T12:31:04.612Z,53.73
2023-01-26T12:33:33.987Z,58.93
2023-01-26T12:36:18.867Z,48.77
2023-01-26T12:39:10.704Z,32.57
2023-01-26T12:42:15.240Z,40.93
2023-01-26T12:45:04.586Z,37.97
2023-01-26T12:47:34.948Z,35.43
2023-01-26T12:50:19.981Z,36.10
2023-01-26T12:53:30.824Z,34.20
2023-01-26T12:56:22.062Z,61.47
2023-01-26T12:58:52.433Z,53.33
2023-01-26T13:01:22.882Z,55.27
2023-01-26T13:03:57.043Z,64.23
2023-01-26T13:06:27.779Z,66.20
2023-01-26T13:09:20.633Z,62.17
2023-01-26T13:12:00.353Z,63.67
2023-01-26T13:14:56.600Z,61.80
2023-01-26T13:17:24.294Z,49.37
2023-01-26T13:19:53.739Z,65.67
2023-01-26T13:22:24.071Z,41.43
2023-01-26T13:24:51.900Z,51.17
2023-01-26T13:27:37.787Z,49.13
2023-01-26T13:30:25.089Z,58.53
2023-01-26T13:32:54.851Z,41.60
2023-01-26T13:35:27.475Z,40.53
2023-01-26T13:38:09.865Z,46.10
2023-01-26T13:40:50.694Z,48.57
2023-01-26T13:43:46.438Z,93.83
2023-01-26T13:46:45.900Z,59.60
2023-01-26T13:49:27.920Z,38.83
2023-01-26T13:51:55.179Z,50.33
2023-01-26T13:54:25.311Z,36.30
2023-01-26T13:57:03.161Z,33.33
2023-01-26T13:59:31.492Z,44.23
2023-01-26T14:01:59.062Z,40.03
2023-01-26T14:04:30.284Z,36.70
2023-01-26T14:07:06.974Z,36.37
2023-01-26T14:09:49.979Z,41.87
2023-01-26T14:12:27.736Z,41.87
2023-01-26T14:15:01.727Z,40.70
2023-01-26T14:17:34.593Z,47.77
2023-01-26T14:20:04.099Z,46.77
2023-01-26T14:22:32.044Z,47.40
2023-01-26T14:24:59.268Z,51.87
2023-01-26T14:27:42.092Z,53.13
2023-01-26T14:30:24.292Z,46.27
2023-01-26T14:33:15.351Z,42.60
2023-01-26T14:36:05.320Z,37.13
2023-01-26T14:38:43.957Z,40.73
2023-01-26T14:41:32.954Z,38.07
2023-01-26T14:44:02.157Z,40.83
2023-01-26T14:46:38.050Z,39.83
2023-01-26T14:49:13.361Z,40.13
2023-01-26T14:51:44.291Z,44.73
2023-01-26T14:54:32.947Z,44.97
2023-01-26T14:57:01.326Z,42.33
2023-01-26T14:59:41.644Z,53.47
2023-01-26T15:02:27.013Z,124.70
2023-01-26T15:05:12.846Z,47.30
2023-01-26T15:07:46.193Z,47.80
2023-01-26T15:11:20.366Z,39.03
2023-01-26T15:13:53.911Z,46.50
2023-01-26T15:16:25.965Z,44.97
2023-01-26T15:19:07.224Z,38.87
2023-01-26T15:21:40.394Z,40.50
2023-01-26T15:24:14.196Z,41.40
2023-01-26T15:26:41.929Z,41.87
2023-01-26T15:29:34.214Z,38.50
2023-01-26T15:32:01.678Z,41.47
2023-01-26T15:34:41.303Z,41.53
2023-01-26T15:37:30.692Z,40.53
2023-01-26T15:39:58.121Z,42.33
2023-01-26T15:42:29.167Z,45.57
2023-01-26T15:44:56.602Z,43.93
2023-01-26T15:47:23.965Z,46.53
2023-01-26T15:49:51.233Z,52.07
2023-01-26T15:52:23.530Z,49.43
2023-01-26T15:54:52.567Z,49.93
2023-01-26T15:57:20.183Z,56.20
2023-01-26T15:59:47.644Z,51.40
2023-01-26T16:02:17.351Z,53.90
2023-01-26T16:04:45.342Z,52.97
2023-01-26T16:07:15.239Z,61.53
2023-01-26T16:09:43.586Z,67.87
2023-01-26T16:12:31.077Z,68.47
2023-01-26T16:15:00.396Z,70.53
2023-01-26T16:17:27.736Z,76.03
2023-01-26T16:19:54.997Z,72.73
2023-01-26T16:22:22.157Z,71.50
2023-01-26T16:24:49.918Z,70.73
2023-01-26T16:27:17.376Z,82.20
2023-01-26T16:29:44.520Z,77.30
2023-01-26T16:32:30.183Z,77.17
2023-01-26T16:34:57.543Z,78.80
2023-01-26T16:37:24.690Z,77.30
2023-01-26T16:39:51.909Z,84.07
2023-01-26T16:42:21.540Z,89.53
2023-01-26T16:44:49.214Z,89.73
2023-01-26T16:47:16.530Z,90.93
2023-01-26T16:49:44.296Z,84.20
2023-01-26T16:52:14.716Z,89.77
2023-01-26T16:54:42.252Z,81.60
2023-01-26T16:57:09.477Z,83.40
2023-01-26T16:59:36.652Z,79.43
2023-01-26T17:02:04.261Z,82.83
2023-01-26T17:04:31.483Z,80.60
2023-01-26T17:06:58.825Z,73.43
2023-01-26T17:09:26.016Z,76.57
2023-01-26T17:11:53.367Z,88.50
2023-01-26T17:14:20.573Z,95.33
2023-01-26T17:16:47.974Z,91.13
2023-01-26T17:19:15.226Z,92.43
2023-01-26T17:21:42.724Z,88.63
2023-01-26T17:24:10.447Z,89.70
2023-01-26T17:26:37.624Z,93.10
2023-01-26T17:29:04.839Z,96.37
2023-01-26T17:31:32.529Z,87.23
2023-01-26T17:33:59.916Z,84.00
2023-01-26T17:36:27.212Z,88.23
2023-01-26T17:38:55.171Z,91.27
2023-01-26T17:41:22.636Z,98.50
2023-01-26T17:43:51.390Z,97.93
2023-01-26T17:46:21.172Z,101.37
2023-01-26T17:48:49.364Z,97.40
2023-01-26T17:51:21.255Z,104.47
2023-01-26T17:53:54.994Z,108.33
2023-01-26T17:56:23.216Z,107.87
2023-01-26T17:58:52.990Z,110.37
2023-01-26T18:01:24.765Z,122.97
2023-01-26T18:03:54.008Z,124.57
2023-01-26T18:06:21.943Z,114.00
2023-01-26T18:08:49.789Z,111.70
2023-01-26T18:11:17.845Z,108.93
2023-01-26T18:13:45.460Z,106.93
2023-01-26T18:16:18.801Z,101.07
2023-01-26T18:18:47.849Z,95.47
2023-01-26T18:21:17.162Z,108.50
2023-01-26T18:23:46.017Z,102.53
2023-01-26T18:26:15.208Z,102.93
2023-01-26T18:28:43.678Z,99.33
2023-01-26T18:31:16.801Z,102.77
2023-01-26T18:33:44.761Z,101.73
2023-01-26T18:36:13.986Z,99.93
2023-01-26T18:38:43.506Z,95.17
2023-01-26T18:41:15.475Z,97.57
2023-01-26T18:43:44.476Z,100.03
2023-01-26T18:46:12.477Z,104.03
2023-01-26T18:48:40.040Z,108.90
2023-01-26T18:51:09.044Z,101.93
2023-01-26T18:53:38.995Z,111.37
2023-01-26T18:56:12.194Z,131.20
2023-01-26T18:58:40.274Z,120.63
2023-01-26T19:01:11.818Z,122.57
2023-01-26T19:03:48.100Z,105.10
2023-01-26T19:06:20.618Z,117.70
2023-01-26T19:08:55.739Z,110.70
2023-01-26T19:11:23.471Z,106.03
2023-01-26T19:13:51.195Z,111.77
2023-01-26T19:16:18.470Z,116.77
2023-01-26T19:18:45.831Z,101.57
2023-01-26T19:21:13.311Z,107.43
2023-01-26T19:23:42.856Z,117.73
2023-01-26T19:26:14.724Z,106.60
2023-01-26T19:28:42.330Z,106.13
2023-01-26T19:31:11.155Z,153.47
2023-01-26T19:33:38.564Z,160.73
2023-01-26T19:36:07.668Z,112.03
2023-01-26T19:38:37.149Z,92.73
2023-01-26T19:41:05.166Z,95.00
2023-01-26T19:43:32.481Z,89.83
2023-01-26T19:45:59.813Z,87.60
2023-01-26T19:48:28.081Z,91.20
2023-01-26T19:51:11.413Z,85.13
2023-01-26T19:53:41.185Z,86.97
2023-01-26T19:56:11.525Z,86.17
2023-01-26T19:58:39.416Z,87.47
2023-01-26T20:01:09.662Z,85.70
2023-01-26T20:03:37.695Z,83.40
2023-01-26T20:06:05.880Z,79.13
2023-01-26T20:08:34.184Z,70.43
2023-01-26T20:11:09.639Z,72.17
2023-01-26T20:13:37.228Z,71.93
2023-01-26T20:16:10.036Z,68.40
2023-01-26T20:18:37.958Z,74.40
2023-01-26T20:21:07.472Z,76.03
2023-01-26T20:23:35.336Z,73.83
2023-01-26T20:26:05.276Z,75.93
2023-01-26T20:28:32.900Z,83.37
2023-01-26T20:31:06.608Z,71.27
2023-01-26T20:33:34.794Z,73.27
2023-01-26T20:36:09.351Z,72.70
2023-01-26T20:38:36.727Z,73.17
2023-01-26T20:41:11.484Z,72.83
2023-01-26T20:43:41.391Z,73.90
2023-01-26T20:46:12.227Z,77.87
2023-01-26T20:48:40.766Z,71.80
2023-01-26T20:51:16.403Z,77.97
2023-01-26T20:53:44.386Z,79.23
2023-01-26T20:56:12.770Z,83.53
2023-01-26T20:58:40.875Z,82.13
2023-01-26T21:01:10.657Z,89.73
2023-01-26T21:03:38.611Z,87.47
2023-01-26T21:06:07.133Z,93.23
2023-01-26T21:08:34.829Z,84.77
2023-01-26T21:11:02.720Z,93.83
2023-01-26T21:13:30.292Z,105.67
2023-01-26T21:15:57.456Z,105.63
2023-01-26T21:18:24.784Z,102.93
2023-01-26T21:21:08.811Z,97.40
2023-01-26T21:23:36.173Z,104.87
2023-01-26T21:26:08.833Z,103.20
2023-01-26T21:28:36.353Z,112.30
2023-01-26T21:31:14.884Z,103.43
2023-01-26T21:33:44.137Z,105.37
2023-01-26T21:36:14.394Z,112.37
2023-01-26T21:38:44.911Z,116.97
2023-01-26T21:41:42.167Z,107.17
2023-01-26T21:44:12.701Z,106.40
2023-01-26T21:46:40.989Z,107.27
2023-01-26T21:49:10.062Z,101.47
2023-01-26T21:51:55.757Z,106.10
2023-01-26T21:54:22.988Z,108.07
2023-01-26T21:56:50.635Z,104.23
2023-01-26T21:59:18.710Z,98.63
2023-01-26T22:01:51.329Z,97.60
2023-01-26T22:04:21.071Z,96.50
2023-01-26T22:06:48.440Z,104.20
2023-01-26T22:09:17.422Z,106.00
2023-01-26T22:11:45.623Z,100.87
2023-01-26T22:14:18.207Z,108.00
2023-01-26T22:16:45.370Z,108.23
2023-01-26T22:19:13.203Z,106.97
2023-01-26T22:21:45.436Z,109.60
2023-01-26T22:24:15.134Z,117.83
2023-01-26T22:26:42.675Z,116.87
2023-01-26T22:29:12.561Z,111.00
2023-01-26T22:31:40.554Z,103.60
2023-01-26T22:34:07.781Z,108.50
2023-01-26T22:36:35.590Z,113.13
2023-01-26T22:39:04.450Z,108.77
2023-01-26T22:41:32.852Z,104.87
2023-01-26T22:44:00.924Z,99.63
2023-01-26T22:46:30.028Z,103.57
2023-01-26T22:48:58.280Z,108.20
2023-01-26T22:51:30.976Z,102.40
2023-01-26T22:53:59.594Z,106.57
2023-01-26T22:56:27.837Z,98.23
2023-01-26T22:58:59.674Z,101.63
2023-01-26T23:01:29.590Z,97.53
2023-01-26T23:03:57.628Z,101.43
2023-01-26T23:06:25.127Z,85.33
2023-01-26T23:08:52.452Z,89.40
2023-01-26T23:11:28.283Z,83.47
2023-01-26T23:13:57.566Z,83.27
2023-01-26T23:16:25.792Z,81.67
2023-01-26T23:18:54.632Z,85.63
2023-01-26T23:21:21.962Z,90.50
2023-01-26T23:23:49.187Z,79.93
2023-01-26T23:26:16.640Z,82.77
2023-01-26T23:28:44.467Z,83.80
2023-01-26T23:31:13.488Z,81.47
2023-01-26T23:33:41.189Z,86.03
2023-01-26T23:36:09.897Z,80.27
2023-01-26T23:38:37.281Z,85.40
2023-01-26T23:41:10.972Z,74.03
2023-01-26T23:43:38.740Z,85.20
2023-01-26T23:46:08.603Z,83.50
2023-01-26T23:48:36.376Z,77.93
2023-01-26T23:51:06.008Z,79.93
2023-01-26T23:53:33.876Z,83.33
2023-01-26T23:56:05.562Z,78.70
2023-01-26T23:58:32.862Z,81.77
